sensor_id;sensor_type;location;lat;lon;timestamp;pressure;altitude;pressure_sealevel;temperature;humidity
25759;BME280;13604;52.496;13.456;2023-05-23T00:00:17;100740.88;;;16.13;49.95
25759;BME280;13604;52.496;13.456;2023-05-23T00:02:43;100772.97;;;16.37;49.68
25759;BME280;13604;52.496;13.456;2023-05-23T00:05:08;100755.91;;;16.18;49.63
25759;BME280;13604;52.496;13.456;2023-05-23T00:07:34;100738.28;;;16.14;49.57
25759;BME280;13604;52.496;13.456;2023-05-23T00:09:59;100786.13;;;16.39;49.90
25759;BME280;13604;52.496;13.456;2023-05-23T00:12:24;100754.09;;;16.16;49.75
25759;BME280;13604;52.496;13.456;2023-05-23T00:14:49;100751.44;;;16.14;49.92
25759;BME280;13604;52.496;13.456;2023-05-23T00:17:17;100766.47;;;16.22;50.60
25759;BME280;13604;52.496;13.456;2023-05-23T00:19:43;100750.34;;;16.05;50.74
25759;BME280;13604;52.496;13.456;2023-05-23T00:22:10;100784.84;;;16.20;50.88
25759;BME280;13604;52.496;13.456;2023-05-23T00:24:36;100748.50;;;16.00;50.63
25759;BME280;13604;52.496;13.456;2023-05-23T00:27:01;100767.00;;;16.07;50.78
25759;BME280;13604;52.496;13.456;2023-05-23T00:29:26;100769.81;;;16.14;51.04
25759;BME280;13604;52.496;13.456;2023-05-23T00:31:52;100771.53;;;16.12;51.09
25759;BME280;13604;52.496;13.456;2023-05-23T00:34:17;100720.00;;;15.79;51.14
25759;BME280;13604;52.496;13.456;2023-05-23T00:36:42;100763.47;;;16.05;51.64
25759;BME280;13604;52.496;13.456;2023-05-23T00:39:11;100740.41;;;15.91;51.40
25759;BME280;13604;52.496;13.456;2023-05-23T00:41:43;100753.66;;;15.96;51.53
25759;BME280;13604;52.496;13.456;2023-05-23T00:44:08;100721.75;;;15.80;51.28
25759;BME280;13604;52.496;13.456;2023-05-23T00:46:34;100756.28;;;15.96;51.88
25759;BME280;13604;52.496;13.456;2023-05-23T00:48:59;100752.56;;;15.88;51.63
25759;BME280;13604;52.496;13.456;2023-05-23T00:51:25;100719.53;;;15.61;51.61
25759;BME280;13604;52.496;13.456;2023-05-23T00:53:51;100727.44;;;15.62;52.04
25759;BME280;13604;52.496;13.456;2023-05-23T00:56:17;100729.00;;;15.54;52.01
25759;BME280;13604;52.496;13.456;2023-05-23T00:58:42;100712.34;;;15.54;51.75
25759;BME280;13604;52.496;13.456;2023-05-23T01:01:08;100713.09;;;15.48;51.99
25759;BME280;13604;52.496;13.456;2023-05-23T01:03:33;100705.06;;;15.42;52.28
25759;BME280;13604;52.496;13.456;2023-05-23T01:05:58;100729.03;;;15.57;52.64
25759;BME280;13604;52.496;13.456;2023-05-23T01:08:24;100695.28;;;15.35;52.59
25759;BME280;13604;52.496;13.456;2023-05-23T01:10:50;100706.78;;;15.40;52.38
25759;BME280;13604;52.496;13.456;2023-05-23T01:13:39;100721.13;;;15.54;52.35
25759;BME280;13604;52.496;13.456;2023-05-23T01:16:11;100716.69;;;15.52;52.67
25759;BME280;13604;52.496;13.456;2023-05-23T01:18:47;100725.66;;;15.61;52.95
25759;BME280;13604;52.496;13.456;2023-05-23T01:21:20;100684.84;;;15.38;52.78
25759;BME280;13604;52.496;13.456;2023-05-23T01:24:20;100713.38;;;15.60;52.64
25759;BME280;13604;52.496;13.456;2023-05-23T01:27:04;100708.09;;;15.59;52.42
25759;BME280;13604;52.496;13.456;2023-05-23T01:29:35;100725.06;;;15.73;52.68
25759;BME280;13604;52.496;13.456;2023-05-23T01:32:06;100700.22;;;15.59;52.73
25759;BME280;13604;52.496;13.456;2023-05-23T01:34:35;100695.75;;;15.55;52.50
25759;BME280;13604;52.496;13.456;2023-05-23T01:37:00;100675.44;;;15.46;52.31
25759;BME280;13604;52.496;13.456;2023-05-23T01:39:26;100723.50;;;15.80;52.52
25759;BME280;13604;52.496;13.456;2023-05-23T01:41:52;100715.59;;;15.78;52.70
25759;BME280;13604;52.496;13.456;2023-05-23T01:44:19;100683.50;;;15.55;52.88
25759;BME280;13604;52.496;13.456;2023-05-23T01:46:45;100708.31;;;15.68;53.42
25759;BME280;13604;52.496;13.456;2023-05-23T01:49:12;100687.97;;;15.58;52.87
25759;BME280;13604;52.496;13.456;2023-05-23T01:51:39;100691.63;;;15.64;53.05
25759;BME280;13604;52.496;13.456;2023-05-23T01:54:05;100673.88;;;15.56;52.70
25759;BME280;13604;52.496;13.456;2023-05-23T01:56:31;100690.66;;;15.61;52.89
25759;BME280;13604;52.496;13.456;2023-05-23T01:58:57;100673.88;;;15.56;52.72
25759;BME280;13604;52.496;13.456;2023-05-23T02:01:22;100680.91;;;15.57;52.80
25759;BME280;13604;52.496;13.456;2023-05-23T02:03:48;100667.59;;;15.49;53.03
25759;BME280;13604;52.496;13.456;2023-05-23T02:06:13;100658.66;;;15.41;52.97
25759;BME280;13604;52.496;13.456;2023-05-23T02:08:38;100665.84;;;15.48;53.12
25759;BME280;13604;52.496;13.456;2023-05-23T02:11:04;100696.91;;;15.66;53.37
25759;BME280;13604;52.496;13.456;2023-05-23T02:13:29;100685.34;;;15.58;53.37
25759;BME280;13604;52.496;13.456;2023-05-23T02:15:55;100665.75;;;15.43;53.17
25759;BME280;13604;52.496;13.456;2023-05-23T02:18:20;100657.75;;;15.39;53.47
25759;BME280;13604;52.496;13.456;2023-05-23T02:20:45;100693.06;;;15.52;53.63
25759;BME280;13604;52.496;13.456;2023-05-23T02:23:11;100689.47;;;15.48;53.68
25759;BME280;13604;52.496;13.456;2023-05-23T02:25:36;100690.34;;;15.49;53.73
25759;BME280;13604;52.496;13.456;2023-05-23T02:28:01;100717.88;;;15.64;53.68
25759;BME280;13604;52.496;13.456;2023-05-23T02:30:27;100715.00;;;15.55;53.68
25759;BME280;13604;52.496;13.456;2023-05-23T02:32:52;100697.31;;;15.46;54.73
25759;BME280;13604;52.496;13.456;2023-05-23T02:35:17;100696.34;;;15.43;53.86
25759;BME280;13604;52.496;13.456;2023-05-23T02:37:43;100683.06;;;15.37;54.25
25759;BME280;13604;52.496;13.456;2023-05-23T02:40:08;100696.34;;;15.43;54.80
25759;BME280;13604;52.496;13.456;2023-05-23T02:42:34;100712.41;;;15.57;55.13
25759;BME280;13604;52.496;13.456;2023-05-23T02:45:00;100670.91;;;15.40;54.85
25759;BME280;13604;52.496;13.456;2023-05-23T02:47:25;100694.00;;;15.55;54.71
25759;BME280;13604;52.496;13.456;2023-05-23T02:49:51;100670.94;;;15.42;54.95
25759;BME280;13604;52.496;13.456;2023-05-23T02:52:16;100688.59;;;15.49;55.11
25759;BME280;13604;52.496;13.456;2023-05-23T02:54:41;100620.22;;;15.06;54.60
25759;BME280;13604;52.496;13.456;2023-05-23T02:57:07;100662.88;;;15.34;54.59
25759;BME280;13604;52.496;13.456;2023-05-23T02:59:32;100654.00;;;15.29;54.90
25759;BME280;13604;52.496;13.456;2023-05-23T03:01:58;100672.66;;;15.40;54.67
25759;BME280;13604;52.496;13.456;2023-05-23T03:04:23;100682.28;;;15.41;54.45
25759;BME280;13604;52.496;13.456;2023-05-23T03:06:48;100696.66;;;15.57;54.75
25759;BME280;13604;52.496;13.456;2023-05-23T03:09:14;100696.63;;;15.55;54.87
25759;BME280;13604;52.496;13.456;2023-05-23T03:11:41;100678.06;;;15.46;54.55
25759;BME280;13604;52.496;13.456;2023-05-23T03:14:06;100693.28;;;15.61;54.66
25759;BME280;13604;52.496;13.456;2023-05-23T03:16:32;100699.50;;;15.64;54.60
25759;BME280;13604;52.496;13.456;2023-05-23T03:18:57;100688.84;;;15.58;54.92
25759;BME280;13604;52.496;13.456;2023-05-23T03:21:22;100676.38;;;15.50;54.36
25759;BME280;13604;52.496;13.456;2023-05-23T03:23:48;100663.13;;;15.43;54.71
25759;BME280;13604;52.496;13.456;2023-05-23T03:26:14;100686.25;;;15.60;54.32
25759;BME280;13604;52.496;13.456;2023-05-23T03:28:39;100703.16;;;15.71;54.66
25759;BME280;13604;52.496;13.456;2023-05-23T03:31:05;100689.72;;;15.59;54.79
25759;BME280;13604;52.496;13.456;2023-05-23T03:33:30;100692.50;;;15.65;55.89
25759;BME280;13604;52.496;13.456;2023-05-23T03:35:55;100682.75;;;15.59;55.70
25759;BME280;13604;52.496;13.456;2023-05-23T03:38:21;100637.41;;;15.28;56.06
25759;BME280;13604;52.496;13.456;2023-05-23T03:40:46;100665.81;;;15.46;56.28
25759;BME280;13604;52.496;13.456;2023-05-23T03:43:12;100658.09;;;15.53;56.57
25759;BME280;13604;52.496;13.456;2023-05-23T03:45:37;100678.50;;;15.64;56.81
25759;BME280;13604;52.496;13.456;2023-05-23T03:48:03;100662.34;;;15.49;57.24
25759;BME280;13604;52.496;13.456;2023-05-23T03:50:28;100662.59;;;15.58;57.80
25759;BME280;13604;52.496;13.456;2023-05-23T03:52:54;100675.06;;;15.69;58.05
25759;BME280;13604;52.496;13.456;2023-05-23T03:55:20;100659.09;;;15.58;57.66
25759;BME280;13604;52.496;13.456;2023-05-23T03:57:48;100662.47;;;15.54;57.76
25759;BME280;13604;52.496;13.456;2023-05-23T04:00:15;100629.75;;;15.38;57.86
25759;BME280;13604;52.496;13.456;2023-05-23T04:02:40;100676.63;;;15.60;57.16
25759;BME280;13604;52.496;13.456;2023-05-23T04:05:06;100670.44;;;15.57;56.93
25759;BME280;13604;52.496;13.456;2023-05-23T04:07:34;100647.25;;;15.39;56.76
25759;BME280;13604;52.496;13.456;2023-05-23T04:10:00;100656.13;;;15.44;56.87
25759;BME280;13604;52.496;13.456;2023-05-23T04:12:26;100655.13;;;15.39;56.33
25759;BME280;13604;52.496;13.456;2023-05-23T04:14:51;100677.38;;;15.55;56.39
25759;BME280;13604;52.496;13.456;2023-05-23T04:17:16;100669.41;;;15.50;56.78
25759;BME280;13604;52.496;13.456;2023-05-23T04:19:42;100674.72;;;15.53;56.63
25759;BME280;13604;52.496;13.456;2023-05-23T04:22:08;100659.78;;;15.51;56.84
25759;BME280;13604;52.496;13.456;2023-05-23T04:24:33;100650.00;;;15.43;56.88
25759;BME280;13604;52.496;13.456;2023-05-23T04:26:58;100689.91;;;15.67;56.36
25759;BME280;13604;52.496;13.456;2023-05-23T04:29:24;100676.50;;;15.56;56.20
25759;BME280;13604;52.496;13.456;2023-05-23T04:31:50;100670.28;;;15.51;56.20
25759;BME280;13604;52.496;13.456;2023-05-23T04:34:15;100688.16;;;15.67;55.83
25759;BME280;13604;52.496;13.456;2023-05-23T04:36:41;100701.78;;;15.86;56.04
25759;BME280;13604;52.496;13.456;2023-05-23T04:39:08;100673.31;;;15.68;56.39
25759;BME280;13604;52.496;13.456;2023-05-23T04:41:34;100686.41;;;15.66;57.07
25759;BME280;13604;52.496;13.456;2023-05-23T04:44:00;100654.78;;;15.61;57.70
25759;BME280;13604;52.496;13.456;2023-05-23T04:46:25;100654.13;;;15.72;57.71
25759;BME280;13604;52.496;13.456;2023-05-23T04:48:54;100678.00;;;15.79;57.45
25759;BME280;13604;52.496;13.456;2023-05-23T04:51:20;100679.13;;;15.91;57.81
25759;BME280;13604;52.496;13.456;2023-05-23T04:53:47;100681.72;;;15.89;58.05
25759;BME280;13604;52.496;13.456;2023-05-23T04:56:14;100657.72;;;15.75;58.64
25759;BME280;13604;52.496;13.456;2023-05-23T04:58:39;100648.88;;;15.72;58.83
25759;BME280;13604;52.496;13.456;2023-05-23T05:01:06;100679.97;;;15.90;59.44
25759;BME280;13604;52.496;13.456;2023-05-23T05:03:33;100656.91;;;15.76;59.71
25759;BME280;13604;52.496;13.456;2023-05-23T05:05:58;100658.56;;;15.73;58.86
25759;BME280;13604;52.496;13.456;2023-05-23T05:08:24;100673.66;;;15.81;58.45
25759;BME280;13604;52.496;13.456;2023-05-23T05:10:50;100643.88;;;15.43;58.78
25759;BME280;13604;52.496;13.456;2023-05-23T05:13:15;100635.16;;;15.45;59.41
25759;BME280;13604;52.496;13.456;2023-05-23T05:15:40;100621.09;;;15.42;60.28
25759;BME280;13604;52.496;13.456;2023-05-23T05:18:06;100672.56;;;15.73;60.80
25759;BME280;13604;52.496;13.456;2023-05-23T05:20:31;100607.13;;;15.43;60.72
25759;BME280;13604;52.496;13.456;2023-05-23T05:22:57;100624.63;;;15.44;60.90
25759;BME280;13604;52.496;13.456;2023-05-23T05:25:22;100662.09;;;15.75;61.16
25759;BME280;13604;52.496;13.456;2023-05-23T05:27:48;100657.41;;;15.61;60.96
25759;BME280;13604;52.496;13.456;2023-05-23T05:30:13;100654.56;;;15.52;60.74
25759;BME280;13604;52.496;13.456;2023-05-23T05:32:39;100677.38;;;15.55;61.59
25759;BME280;13604;52.496;13.456;2023-05-23T05:35:04;100681.88;;;15.60;62.42
25759;BME280;13604;52.496;13.456;2023-05-23T05:37:31;100657.81;;;15.42;63.30
25759;BME280;13604;52.496;13.456;2023-05-23T05:39:57;100686.88;;;15.50;63.32
25759;BME280;13604;52.496;13.456;2023-05-23T05:42:23;100701.03;;;15.56;63.53
25759;BME280;13604;52.496;13.456;2023-05-23T05:44:48;100688.72;;;15.54;62.55
25759;BME280;13604;52.496;13.456;2023-05-23T05:47:14;100697.63;;;15.60;62.17
25759;BME280;13604;52.496;13.456;2023-05-23T05:49:40;100671.91;;;15.45;61.95
25759;BME280;13604;52.496;13.456;2023-05-23T05:52:06;100670.22;;;15.49;61.97
25759;BME280;13604;52.496;13.456;2023-05-23T05:54:31;100664.25;;;15.55;62.47
25759;BME280;13604;52.496;13.456;2023-05-23T05:56:56;100671.56;;;15.68;63.55
25759;BME280;13604;52.496;13.456;2023-05-23T05:59:22;100637.13;;;15.54;62.91
25759;BME280;13604;52.496;13.456;2023-05-23T06:01:47;100660.25;;;15.72;62.42
25759;BME280;13604;52.496;13.456;2023-05-23T06:04:15;100684.25;;;15.86;61.34
25759;BME280;13604;52.496;13.456;2023-05-23T06:06:40;100670.72;;;15.69;62.04
25759;BME280;13604;52.496;13.456;2023-05-23T06:09:05;100657.56;;;15.68;60.61
25759;BME280;13604;52.496;13.456;2023-05-23T06:11:31;100646.03;;;15.61;61.89
25759;BME280;13604;52.496;13.456;2023-05-23T06:13:56;100664.91;;;15.81;62.04
25759;BME280;13604;52.496;13.456;2023-05-23T06:16:21;100674.88;;;15.97;62.07
25759;BME280;13604;52.496;13.456;2023-05-23T06:18:47;100640.88;;;15.65;59.39
25759;BME280;13604;52.496;13.456;2023-05-23T06:21:12;100646.84;;;15.58;60.76
25759;BME280;13604;52.496;13.456;2023-05-23T06:23:37;100675.41;;;15.81;61.05
25759;BME280;13604;52.496;13.456;2023-05-23T06:26:03;100644.41;;;15.66;61.18
25759;BME280;13604;52.496;13.456;2023-05-23T06:28:32;100678.81;;;15.78;60.49
25759;BME280;13604;52.496;13.456;2023-05-23T06:30:57;100677.44;;;15.94;60.51
25759;BME280;13604;52.496;13.456;2023-05-23T06:33:22;100655.59;;;15.95;60.52
25759;BME280;13604;52.496;13.456;2023-05-23T06:35:48;100677.06;;;16.17;59.63
25759;BME280;13604;52.496;13.456;2023-05-23T06:38:13;100645.06;;;16.36;59.27
25759;BME280;13604;52.496;13.456;2023-05-23T06:40:38;100657.28;;;16.82;59.16
25759;BME280;13604;52.496;13.456;2023-05-23T06:43:04;100649.88;;;17.06;57.20
25759;BME280;13604;52.496;13.456;2023-05-23T06:45:29;100653.94;;;17.41;56.79
25759;BME280;13604;52.496;13.456;2023-05-23T06:47:54;100642.16;;;17.74;54.67
25759;BME280;13604;52.496;13.456;2023-05-23T06:50:20;100641.69;;;18.01;53.56
25759;BME280;13604;52.496;13.456;2023-05-23T06:52:45;100641.22;;;18.36;52.71
25759;BME280;13604;52.496;13.456;2023-05-23T06:55:11;100651.09;;;18.54;51.75
25759;BME280;13604;52.496;13.456;2023-05-23T06:57:39;100642.53;;;18.73;51.32
25759;BME280;13604;52.496;13.456;2023-05-23T07:00:05;100630.41;;;18.92;51.03
25759;BME280;13604;52.496;13.456;2023-05-23T07:02:30;100697.13;;;19.79;50.51
25759;BME280;13604;52.496;13.456;2023-05-23T07:04:55;100646.19;;;20.06;48.83
25759;BME280;13604;52.496;13.456;2023-05-23T07:07:21;100671.06;;;20.51;48.06
25759;BME280;13604;52.496;13.456;2023-05-23T07:09:46;100671.81;;;20.26;47.41
25759;BME280;13604;52.496;13.456;2023-05-23T07:12:11;100677.91;;;20.09;48.30
25759;BME280;13604;52.496;13.456;2023-05-23T07:14:37;100679.69;;;20.07;48.98
25759;BME280;13604;52.496;13.456;2023-05-23T07:17:02;100671.81;;;20.26;48.69
25759;BME280;13604;52.496;13.456;2023-05-23T07:19:27;100663.16;;;20.64;48.40
25759;BME280;13604;52.496;13.456;2023-05-23T07:21:53;100676.50;;;21.02;47.56
25759;BME280;13604;52.496;13.456;2023-05-23T07:24:18;100674.72;;;21.20;48.21
25759;BME280;13604;52.496;13.456;2023-05-23T07:26:43;100650.88;;;21.06;48.26
25759;BME280;13604;52.496;13.456;2023-05-23T07:29:08;100643.84;;;21.14;48.08
25759;BME280;13604;52.496;13.456;2023-05-23T07:31:34;100620.88;;;21.01;46.59
25759;BME280;13604;52.496;13.456;2023-05-23T07:33:59;100670.31;;;21.16;46.07
25759;BME280;13604;52.496;13.456;2023-05-23T07:36:24;100660.59;;;20.99;45.24
25759;BME280;13604;52.496;13.456;2023-05-23T07:38:50;100666.78;;;21.18;43.73
25759;BME280;13604;52.496;13.456;2023-05-23T07:41:17;100644.72;;;21.14;43.59
25759;BME280;13604;52.496;13.456;2023-05-23T07:43:42;100656.16;;;21.41;42.59
25759;BME280;13604;52.496;13.456;2023-05-23T07:46:07;100656.19;;;21.58;43.02
25759;BME280;13604;52.496;13.456;2023-05-23T07:48:33;100638.41;;;22.03;41.72
25759;BME280;13604;52.496;13.456;2023-05-23T07:50:58;100658.47;;;22.66;40.43
25759;BME280;13604;52.496;13.456;2023-05-23T07:53:23;100626.44;;;22.92;40.00
25759;BME280;13604;52.496;13.456;2023-05-23T07:55:49;100665.91;;;23.39;39.47
25759;BME280;13604;52.496;13.456;2023-05-23T07:58:14;100660.91;;;22.97;39.91
25759;BME280;13604;52.496;13.456;2023-05-23T08:00:39;100645.09;;;22.83;39.98
25759;BME280;13604;52.496;13.456;2023-05-23T08:03:05;100672.47;;;22.94;40.30
25759;BME280;13604;52.496;13.456;2023-05-23T08:05:31;100638.13;;;22.67;39.79
25759;BME280;13604;52.496;13.456;2023-05-23T08:07:56;100661.25;;;22.45;40.78
25759;BME280;13604;52.496;13.456;2023-05-23T08:10:21;100680.75;;;22.30;40.95
25759;BME280;13604;52.496;13.456;2023-05-23T08:12:46;100686.88;;;22.49;41.35
25759;BME280;13604;52.496;13.456;2023-05-23T08:15:12;100655.13;;;22.26;40.40
25759;BME280;13604;52.496;13.456;2023-05-23T08:17:38;100672.00;;;22.08;40.82
25759;BME280;13604;52.496;13.456;2023-05-23T08:20:04;100675.63;;;21.68;41.46
25759;BME280;13604;52.496;13.456;2023-05-23T08:22:29;100681.78;;;21.76;41.74
25759;BME280;13604;52.496;13.456;2023-05-23T08:24:54;100687.97;;;21.72;41.47
25759;BME280;13604;52.496;13.456;2023-05-23T08:27:20;100689.78;;;21.52;41.94
25759;BME280;13604;52.496;13.456;2023-05-23T08:29:45;100661.47;;;21.71;42.46
25759;BME280;13604;52.496;13.456;2023-05-23T08:32:11;100653.50;;;21.69;41.72
25759;BME280;13604;52.496;13.456;2023-05-23T08:34:36;100690.50;;;22.18;41.75
25759;BME280;13604;52.496;13.456;2023-05-23T08:37:01;100654.53;;;23.26;39.81
25759;BME280;13604;52.496;13.456;2023-05-23T08:39:27;100694.22;;;24.98;37.84
25759;BME280;13604;52.496;13.456;2023-05-23T08:41:52;100693.53;;;25.96;36.04
25759;BME280;13604;52.496;13.456;2023-05-23T08:44:17;100702.25;;;26.05;35.77
25759;BME280;13604;52.496;13.456;2023-05-23T08:46:46;100701.13;;;26.16;35.95
25759;BME280;13604;52.496;13.456;2023-05-23T08:49:15;100672.00;;;25.57;36.51
25759;BME280;13604;52.496;13.456;2023-05-23T08:51:42;100683.50;;;25.59;36.29
25759;BME280;13604;52.496;13.456;2023-05-23T08:54:09;100712.13;;;25.47;36.88
25759;BME280;13604;52.496;13.456;2023-05-23T08:56:37;100720.78;;;25.04;38.00
25759;BME280;13604;52.496;13.456;2023-05-23T08:59:03;100691.69;;;24.23;38.87
25759;BME280;13604;52.496;13.456;2023-05-23T09:01:29;100722.47;;;23.58;40.66
25759;BME280;13604;52.496;13.456;2023-05-23T09:03:54;100720.56;;;23.74;40.72
25759;BME280;13604;52.496;13.456;2023-05-23T09:06:20;100702.28;;;23.32;41.34
25759;BME280;13604;52.496;13.456;2023-05-23T09:08:46;100728.41;;;23.87;40.88
25759;BME280;13604;52.496;13.456;2023-05-23T09:11:12;100724.47;;;24.97;39.19
25759;BME280;13604;52.496;13.456;2023-05-23T09:13:38;100723.19;;;26.25;38.36
25759;BME280;13604;52.496;13.456;2023-05-23T09:16:06;100711.66;;;27.06;36.26
25759;BME280;13604;52.496;13.456;2023-05-23T09:18:41;100731.41;;;28.40;34.63
25759;BME280;13604;52.496;13.456;2023-05-23T09:21:08;100721.34;;;29.36;33.62
25759;BME280;13604;52.496;13.456;2023-05-23T09:23:34;100719.94;;;30.75;31.80
25759;BME280;13604;52.496;13.456;2023-05-23T09:26:04;100732.81;;;32.19;29.54
25759;BME280;13604;52.496;13.456;2023-05-23T09:28:31;100718.81;;;32.10;29.62
25759;BME280;13604;52.496;13.456;2023-05-23T09:31:01;100734.38;;;31.41;30.32
25759;BME280;13604;52.496;13.456;2023-05-23T09:33:45;100727.00;;;31.01;30.98
25759;BME280;13604;52.496;13.456;2023-05-23T09:36:14;100726.13;;;29.80;32.70
25759;BME280;13604;52.496;13.456;2023-05-23T09:38:40;100735.03;;;30.07;33.19
25759;BME280;13604;52.496;13.456;2023-05-23T09:41:06;100730.09;;;29.95;33.38
25759;BME280;13604;52.496;13.456;2023-05-23T09:43:32;100736.91;;;29.25;34.75
25759;BME280;13604;52.496;13.456;2023-05-23T09:46:08;100722.66;;;29.23;34.97
25759;BME280;13604;52.496;13.456;2023-05-23T09:48:33;100708.59;;;29.95;33.54
25759;BME280;13604;52.496;13.456;2023-05-23T09:51:03;100717.63;;;28.84;35.26
25759;BME280;13604;52.496;13.456;2023-05-23T09:53:28;100715.06;;;28.49;36.14
25759;BME280;13604;52.496;13.456;2023-05-23T09:55:54;100741.66;;;28.87;36.68
25759;BME280;13604;52.496;13.456;2023-05-23T09:58:22;100747.44;;;28.41;37.04
25759;BME280;13604;52.496;13.456;2023-05-23T10:00:52;100720.84;;;27.68;38.23
25759;BME280;13604;52.496;13.456;2023-05-23T10:03:24;100712.78;;;28.04;36.82
25759;BME280;13604;52.496;13.456;2023-05-23T10:05:56;100733.59;;;27.21;38.69
25759;BME280;13604;52.496;13.456;2023-05-23T10:08:26;100733.78;;;27.13;39.28
25759;BME280;13604;52.496;13.456;2023-05-23T10:13:26;100706.97;;;27.88;38.24
25759;BME280;13604;52.496;13.456;2023-05-23T10:15:58;100743.19;;;27.67;38.63
25759;BME280;13604;52.496;13.456;2023-05-23T10:18:25;100723.81;;;28.86;36.06
25759;BME280;13604;52.496;13.456;2023-05-23T10:20:56;100736.78;;;29.56;34.53
25759;BME280;13604;52.496;13.456;2023-05-23T10:23:26;100734.00;;;28.43;35.94
25759;BME280;13604;52.496;13.456;2023-05-23T10:25:51;100726.47;;;29.96;35.33
25759;BME280;13604;52.496;13.456;2023-05-23T10:28:17;100728.38;;;30.17;33.33
25759;BME280;13604;52.496;13.456;2023-05-23T10:30:42;100746.38;;;28.78;36.19
25759;BME280;13604;52.496;13.456;2023-05-23T10:33:08;100736.44;;;27.86;38.40
25759;BME280;13604;52.496;13.456;2023-05-23T10:38:37;100738.50;;;29.57;36.44
25759;BME280;13604;52.496;13.456;2023-05-23T10:41:09;100730.59;;;31.67;33.17
25759;BME280;13604;52.496;13.456;2023-05-23T10:43:43;100739.00;;;32.41;32.38
25759;BME280;13604;52.496;13.456;2023-05-23T10:46:14;100752.44;;;32.81;31.86
25759;BME280;13604;52.496;13.456;2023-05-23T10:48:43;100746.09;;;33.01;31.93
25759;BME280;13604;52.496;13.456;2023-05-23T10:51:10;100751.19;;;33.98;30.57
25759;BME280;13604;52.496;13.456;2023-05-23T10:53:44;100749.25;;;33.47;30.56
25759;BME280;13604;52.496;13.456;2023-05-23T10:56:10;100754.00;;;31.43;34.50
25759;BME280;13604;52.496;13.456;2023-05-23T10:58:43;100746.53;;;29.85;37.83
25759;BME280;13604;52.496;13.456;2023-05-23T11:01:12;100755.66;;;28.67;40.37
25759;BME280;13604;52.496;13.456;2023-05-23T11:09:00;100765.38;;;28.06;41.92
25759;BME280;13604;52.496;13.456;2023-05-23T11:14:17;100764.91;;;25.27;48.30
25759;BME280;13604;52.496;13.456;2023-05-23T11:16:44;100772.91;;;24.57;50.90
25759;BME280;13604;52.496;13.456;2023-05-23T11:21:43;100768.06;;;24.14;53.57
25759;BME280;13604;52.496;13.456;2023-05-23T11:24:08;100756.94;;;24.57;53.02
25759;BME280;13604;52.496;13.456;2023-05-23T11:26:34;100737.59;;;25.65;50.40
25759;BME280;13604;52.496;13.456;2023-05-23T11:28:59;100744.34;;;25.86;48.26
25759;BME280;13604;52.496;13.456;2023-05-23T11:31:27;100759.38;;;25.38;49.29
25759;BME280;13604;52.496;13.456;2023-05-23T11:33:52;100742.97;;;24.38;51.20
25759;BME280;13604;52.496;13.456;2023-05-23T11:36:20;100774.75;;;23.56;53.90
25759;BME280;13604;52.496;13.456;2023-05-23T11:38:46;100772.41;;;23.06;55.84
25759;BME280;13604;52.496;13.456;2023-05-23T11:41:11;100773.59;;;22.22;58.58
25759;BME280;13604;52.496;13.456;2023-05-23T11:43:36;100769.22;;;22.02;59.81
25759;BME280;13604;52.496;13.456;2023-05-23T11:46:08;100760.41;;;21.54;61.52
25759;BME280;13604;52.496;13.456;2023-05-23T11:48:33;100754.22;;;21.38;62.28
25759;BME280;13604;52.496;13.456;2023-05-23T11:50:58;100757.69;;;21.26;62.64
25759;BME280;13604;52.496;13.456;2023-05-23T11:53:26;100770.88;;;20.89;63.93
25759;BME280;13604;52.496;13.456;2023-05-23T11:56:00;100786.56;;;20.57;65.46
25759;BME280;13604;52.496;13.456;2023-05-23T11:58:36;100780.31;;;20.36;66.53
25759;BME280;13604;52.496;13.456;2023-05-23T12:01:08;100794.25;;;20.09;68.11
25759;BME280;13604;52.496;13.456;2023-05-23T12:03:43;100774.41;;;19.56;69.88
25759;BME280;13604;52.496;13.456;2023-05-23T12:06:09;100791.09;;;19.54;71.04
25759;BME280;13604;52.496;13.456;2023-05-23T12:08:34;100775.22;;;19.47;71.09
25759;BME280;13604;52.496;13.456;2023-05-23T12:11:00;100767.28;;;19.46;71.22
25759;BME280;13604;52.496;13.456;2023-05-23T12:13:28;100761.25;;;19.61;71.05
25759;BME280;13604;52.496;13.456;2023-05-23T12:15:55;100798.59;;;20.01;69.91
25759;BME280;13604;52.496;13.456;2023-05-23T12:18:21;100800.53;;;20.33;68.03
25759;BME280;13604;52.496;13.456;2023-05-23T12:20:48;100796.09;;;20.26;67.99
25759;BME280;13604;52.496;13.456;2023-05-23T12:23:19;100784.97;;;20.81;66.36
25759;BME280;13604;52.496;13.456;2023-05-23T12:25:48;100768.28;;;21.14;64.49
25759;BME280;13604;52.496;13.456;2023-05-23T12:28:14;100793.06;;;22.07;61.58
25759;BME280;13604;52.496;13.456;2023-05-23T12:30:41;100752.41;;;22.02;60.23
25759;BME280;13604;52.496;13.456;2023-05-23T12:33:07;100790.41;;;22.24;60.37
25759;BME280;13604;52.496;13.456;2023-05-23T12:35:33;100796.63;;;21.54;61.98
25759;BME280;13604;52.496;13.456;2023-05-23T12:37:59;100796.63;;;21.52;62.11
25759;BME280;13604;52.496;13.456;2023-05-23T12:40:24;100800.16;;;21.59;62.09
25759;BME280;13604;52.496;13.456;2023-05-23T12:45:38;100809.72;;;21.01;64.14
25759;BME280;13604;52.496;13.456;2023-05-23T12:48:04;100791.97;;;20.74;64.41
25759;BME280;13604;52.496;13.456;2023-05-23T12:50:30;100821.84;;;20.54;65.51
25759;BME280;13604;52.496;13.456;2023-05-23T12:52:55;100797.13;;;20.46;65.63
25759;BME280;13604;52.496;13.456;2023-05-23T12:55:21;100799.63;;;20.28;66.42